createdAt,value
2018-03-19T00:00:17.481Z,22.05
2018-03-19T00:01:17.513Z,22.02
2018-03-19T00:02:17.541Z,22.02
2018-03-19T00:03:17.572Z,22.03
2018-03-19T00:04:17.597Z,22.15
2018-03-19T00:05:17.629Z,22.05
2018-03-19T00:06:17.656Z,22.12
2018-03-19T00:07:17.687Z,21.98
2018-03-19T00:08:17.724Z,22.12
2018-03-19T00:09:17.752Z,22.09
2018-03-19T00:10:17.785Z,22.02
2018-03-19T00:11:17.815Z,21.99
2018-03-19T00:12:17.843Z,22.03
2018-03-19T00:13:17.873Z,22.02
2018-03-19T00:14:17.903Z,22.00
2018-03-19T00:15:17.932Z,22.03
2018-03-19T00:16:17.959Z,22.02
2018-03-19T00:17:17.990Z,22.06
2018-03-19T00:18:18.040Z,22.10
2018-03-19T00:19:18.049Z,21.98
2018-03-19T00:20:18.086Z,21.98
2018-03-19T00:21:18.115Z,22.06
2018-03-19T00:22:18.144Z,22.03
2018-03-19T00:23:18.178Z,22.03
2018-03-19T00:24:18.201Z,22.02
2018-03-19T00:25:18.233Z,22.09
2018-03-19T00:26:18.260Z,22.03
2018-03-19T00:27:18.294Z,22.00
2018-03-19T00:28:18.328Z,22.06
2018-03-19T00:29:18.355Z,22.03
2018-03-19T00:30:18.386Z,21.99
2018-03-19T00:31:18.419Z,22.02
2018-03-19T00:32:18.442Z,22.03
2018-03-19T00:33:18.470Z,22.10
2018-03-19T00:34:18.504Z,22.02
2018-03-19T00:35:18.531Z,21.99
2018-03-19T00:36:18.567Z,22.03
2018-03-19T00:37:18.598Z,21.96
2018-03-19T00:38:18.627Z,22.03
2018-03-19T00:39:18.658Z,21.98
2018-03-19T00:40:18.684Z,21.99
2018-03-19T00:41:18.714Z,22.10
2018-03-19T00:42:18.743Z,22.07
2018-03-19T00:43:18.777Z,22.02
2018-03-19T00:44:18.813Z,21.96
2018-03-19T00:45:18.835Z,22.06
2018-03-19T00:46:18.864Z,22.02
2018-03-19T00:47:18.897Z,22.02
2018-03-19T00:48:18.936Z,22.03
2018-03-19T00:49:18.959Z,22.00
2018-03-19T00:50:18.991Z,22.03
2018-03-19T00:51:19.020Z,21.98
2018-03-19T00:52:19.046Z,21.99
2018-03-19T00:53:19.075Z,22.02
2018-03-19T00:54:19.105Z,21.92
2018-03-19T00:55:19.137Z,21.96
2018-03-19T00:56:19.170Z,21.98
2018-03-19T00:57:19.202Z,21.99
2018-03-19T00:58:19.232Z,21.92
2018-03-19T00:59:19.261Z,21.91
2018-03-19T01:00:19.293Z,21.96
2018-03-19T01:01:19.322Z,21.98
2018-03-19T01:02:19.352Z,21.99
2018-03-19T01:03:19.389Z,21.99
2018-03-19T01:04:19.414Z,21.91
2018-03-19T01:05:19.441Z,21.96
2018-03-19T01:06:19.466Z,21.96
2018-03-19T01:07:19.500Z,21.96
2018-03-19T01:08:19.535Z,21.98
2018-03-19T01:09:19.564Z,21.99
2018-03-19T01:10:19.594Z,21.96
2018-03-19T01:11:19.625Z,21.96
2018-03-19T01:12:19.650Z,22.05
2018-03-19T01:13:19.679Z,22.02
2018-03-19T01:14:19.711Z,21.94
2018-03-19T01:15:19.739Z,22.00
2018-03-19T01:16:19.768Z,21.98
2018-03-19T01:17:19.802Z,21.96
2018-03-19T01:18:19.835Z,21.99
2018-03-19T01:19:19.863Z,21.99
2018-03-19T01:20:19.897Z,22.02
2018-03-19T01:21:19.929Z,21.98
2018-03-19T01:22:19.964Z,21.86
2018-03-19T01:23:19.989Z,22.03
2018-03-19T01:24:20.014Z,21.98
2018-03-19T01:25:20.041Z,22.00
2018-03-19T01:26:20.070Z,21.94
2018-03-19T01:27:20.105Z,22.03
2018-03-19T01:28:20.139Z,21.99
2018-03-19T01:29:20.165Z,21.91
2018-03-19T01:30:20.202Z,21.98
2018-03-19T01:31:20.226Z,21.88
2018-03-19T01:32:20.254Z,21.92
2018-03-19T01:33:20.284Z,21.88
2018-03-19T01:34:20.314Z,21.90
2018-03-19T01:35:20.347Z,21.82
2018-03-19T01:36:20.382Z,21.84
2018-03-19T01:37:20.410Z,21.86
2018-03-19T01:38:20.436Z,21.84
2018-03-19T01:39:20.468Z,21.96
2018-03-19T01:40:20.494Z,21.92
2018-03-19T01:41:20.524Z,21.82
2018-03-19T01:42:20.557Z,21.91
2018-03-19T01:43:20.587Z,21.98
2018-03-19T01:44:20.622Z,21.92
2018-03-19T01:45:20.650Z,21.90
2018-03-19T01:46:20.683Z,21.88
2018-03-19T01:47:20.711Z,21.98
2018-03-19T01:48:20.744Z,21.94
2018-03-19T01:49:20.774Z,21.91
2018-03-19T01:50:20.804Z,21.94
2018-03-19T01:51:20.834Z,21.94
2018-03-19T01:52:20.860Z,21.86
2018-03-19T01:53:20.888Z,21.88
2018-03-19T01:54:20.944Z,21.91
2018-03-19T01:55:20.948Z,21.84
2018-03-19T01:56:20.985Z,21.86
2018-03-19T01:57:21.017Z,21.84
2018-03-19T01:58:21.047Z,21.91
2018-03-19T01:59:21.075Z,21.88
2018-03-19T02:00:21.103Z,21.96
2018-03-19T02:01:21.133Z,21.98
2018-03-19T02:02:21.164Z,21.94
2018-03-19T02:03:21.200Z,21.83
2018-03-19T02:04:21.224Z,21.98
2018-03-19T02:05:21.255Z,21.84
2018-03-19T02:06:21.287Z,21.96
2018-03-19T02:07:21.317Z,21.96
2018-03-19T02:08:21.352Z,21.96
2018-03-19T02:09:21.441Z,21.96
2018-03-19T02:10:21.410Z,21.99
2018-03-19T02:11:21.442Z,21.88
2018-03-19T02:12:21.485Z,21.99
2018-03-19T02:13:21.505Z,21.91
2018-03-19T02:14:21.528Z,21.88
2018-03-19T02:15:21.604Z,21.91
2018-03-19T02:16:21.594Z,21.98
2018-03-19T02:17:21.632Z,21.86
2018-03-19T02:18:21.769Z,21.91
2018-03-19T02:19:21.685Z,21.88
2018-03-19T02:20:21.716Z,21.90
2018-03-19T02:21:21.745Z,21.88
2018-03-19T02:22:21.775Z,21.92
2018-03-19T02:23:21.805Z,21.92
2018-03-19T02:24:21.834Z,21.86
2018-03-19T02:25:21.860Z,22.00
2018-03-19T02:26:21.892Z,21.88
2018-03-19T02:27:21.938Z,21.94
2018-03-19T02:28:21.958Z,21.84
2018-03-19T02:29:21.990Z,21.91
2018-03-19T02:30:22.021Z,21.84
2018-03-19T02:31:22.052Z,21.88
2018-03-19T02:32:22.076Z,21.94
2018-03-19T02:33:22.106Z,21.96
2018-03-19T02:34:22.135Z,21.88
2018-03-19T02:35:22.166Z,21.98
2018-03-19T02:36:22.201Z,21.94
2018-03-19T02:37:22.233Z,21.84
2018-03-19T02:38:22.262Z,21.96
2018-03-19T02:39:22.292Z,21.83
2018-03-19T02:40:22.325Z,21.84
2018-03-19T02:41:22.350Z,21.84
2018-03-19T02:42:22.403Z,21.88
2018-03-19T02:43:22.410Z,21.96
2018-03-19T02:44:22.446Z,21.91
2018-03-19T02:45:22.473Z,21.91
2018-03-19T02:46:22.507Z,21.90
2018-03-19T02:47:22.539Z,21.86
2018-03-19T02:48:22.563Z,21.84
2018-03-19T02:49:22.592Z,21.88
2018-03-19T02:50:22.625Z,21.90
2018-03-19T02:51:22.653Z,21.94
2018-03-19T02:52:22.685Z,21.94
2018-03-19T02:53:22.716Z,21.92
2018-03-19T02:54:22.744Z,21.98
2018-03-19T02:55:22.774Z,21.84
2018-03-19T02:56:22.812Z,21.98
2018-03-19T02:57:22.843Z,21.84
2018-03-19T02:58:22.873Z,21.84
2018-03-19T02:59:22.904Z,21.92
2018-03-19T03:00:22.928Z,21.91
2018-03-19T03:01:22.957Z,21.91
2018-03-19T03:02:22.989Z,21.91
2018-03-19T03:03:23.018Z,21.80
2018-03-19T03:04:23.055Z,21.90
2018-03-19T03:05:23.084Z,21.90
2018-03-19T03:06:23.113Z,21.86
2018-03-19T03:07:23.147Z,21.84
2018-03-19T03:08:23.176Z,21.91
2018-03-19T03:09:23.209Z,21.92
2018-03-19T03:10:23.236Z,21.86
2018-03-19T03:11:23.264Z,21.84
2018-03-19T03:12:23.295Z,21.91
2018-03-19T03:13:23.321Z,21.91
2018-03-19T03:14:23.355Z,21.91
2018-03-19T03:15:23.383Z,21.80
2018-03-19T03:16:23.420Z,21.80
2018-03-19T03:17:23.451Z,21.88
2018-03-19T03:18:23.480Z,21.90
2018-03-19T03:19:23.510Z,21.98
2018-03-19T03:20:23.534Z,21.86
2018-03-19T03:21:23.576Z,21.82
2018-03-19T03:22:23.597Z,21.86
2018-03-19T03:23:23.627Z,21.91
2018-03-19T03:24:23.659Z,21.88
2018-03-19T03:25:23.686Z,21.86
2018-03-19T03:26:23.721Z,21.80
2018-03-19T03:27:23.750Z,21.88
2018-03-19T03:28:23.781Z,21.90
2018-03-19T03:29:23.814Z,21.91
2018-03-19T03:30:23.846Z,21.84
2018-03-19T03:31:23.876Z,21.79
2018-03-19T03:32:23.900Z,21.79
2018-03-19T03:33:23.934Z,21.75
2018-03-19T03:34:23.961Z,21.82
2018-03-19T03:35:23.992Z,21.84
2018-03-19T03:36:24.027Z,21.80
2018-03-19T03:37:24.056Z,21.80
2018-03-19T03:38:24.086Z,21.94
2018-03-19T03:39:24.114Z,21.79
2018-03-19T03:40:24.141Z,21.82
2018-03-19T03:41:24.175Z,21.77
2018-03-19T03:42:24.206Z,21.84
2018-03-19T03:43:24.233Z,21.84
2018-03-19T03:44:24.267Z,21.79
2018-03-19T03:45:24.299Z,21.82
2018-03-19T03:46:24.329Z,21.84
2018-03-19T03:47:24.361Z,21.84
2018-03-19T03:48:24.389Z,21.82
2018-03-19T03:49:24.414Z,21.82
2018-03-19T03:50:24.446Z,21.86
2018-03-19T03:51:24.477Z,21.80
2018-03-19T03:52:24.512Z,21.79
2018-03-19T03:53:24.543Z,21.82
2018-03-19T03:54:24.572Z,21.83
2018-03-19T03:55:24.602Z,21.79
2018-03-19T03:56:24.633Z,21.79
2018-03-19T03:57:24.663Z,21.83
2018-03-19T03:58:24.697Z,21.75
2018-03-19T03:59:24.725Z,21.77
2018-03-19T04:00:24.750Z,21.74
2018-03-19T04:01:24.781Z,21.71
2018-03-19T04:02:24.808Z,21.67
2018-03-19T04:03:24.841Z,21.68
2018-03-19T04:04:24.877Z,21.69
2018-03-19T04:05:24.905Z,21.69
2018-03-19T04:06:24.934Z,21.49
2018-03-19T04:07:24.965Z,21.62
2018-03-19T04:08:24.991Z,21.65
2018-03-19T04:09:25.021Z,21.65
2018-03-19T04:10:25.049Z,21.62
2018-03-19T04:11:25.079Z,21.61
2018-03-19T04:12:25.111Z,21.67
2018-03-19T04:13:25.137Z,21.58
2018-03-19T04:14:25.167Z,21.54
2018-03-19T04:15:25.199Z,21.54
2018-03-19T04:16:25.234Z,21.62
2018-03-19T04:17:25.263Z,21.53
2018-03-19T04:18:25.291Z,21.56
2018-03-19T04:19:25.319Z,21.50
2018-03-19T04:20:25.345Z,21.42
2018-03-19T04:21:25.375Z,21.42
2018-03-19T04:22:25.403Z,21.50
2018-03-19T04:23:25.435Z,21.53
2018-03-19T04:24:25.470Z,21.50
2018-03-19T04:25:25.502Z,21.44
2018-03-19T04:26:25.526Z,21.54
2018-03-19T04:27:25.556Z,21.50
2018-03-19T04:28:25.587Z,21.49
2018-03-19T04:29:25.613Z,21.52
2018-03-19T04:30:25.645Z,21.53
2018-03-19T04:31:25.681Z,21.52
2018-03-19T04:32:25.703Z,21.53
2018-03-19T04:33:25.730Z,21.52
2018-03-19T04:34:25.761Z,21.53
2018-03-19T04:35:25.790Z,21.50
2018-03-19T04:36:25.825Z,21.50
2018-03-19T04:37:25.855Z,21.52
2018-03-19T04:38:25.885Z,21.43
2018-03-19T04:39:25.912Z,21.47
2018-03-19T04:40:25.940Z,21.49
2018-03-19T04:41:25.971Z,21.49
2018-03-19T04:42:26.000Z,21.49
2018-03-19T04:43:26.029Z,21.56
2018-03-19T04:44:26.060Z,21.50
2018-03-19T04:45:26.089Z,21.58
2018-03-19T04:46:26.121Z,21.54
2018-03-19T04:47:26.149Z,21.58
2018-03-19T04:48:26.320Z,21.58
2018-03-19T04:49:26.414Z,21.61
2018-03-19T04:50:26.246Z,21.50
2018-03-19T04:51:26.275Z,21.52
2018-03-19T04:52:26.301Z,21.54
2018-03-19T04:53:26.330Z,21.50
2018-03-19T04:54:26.362Z,21.52
2018-03-19T04:55:26.393Z,21.69
2018-03-19T04:56:26.426Z,21.61
2018-03-19T04:57:26.457Z,21.53
2018-03-19T04:58:26.485Z,20.94
2018-03-19T04:59:26.515Z,19.91
2018-03-19T05:00:26.546Z,18.90
2018-03-19T05:01:26.576Z,18.08
2018-03-19T05:02:26.602Z,17.70
2018-03-19T05:03:26.640Z,17.33
2018-03-19T05:04:26.658Z,17.78
2018-03-19T05:05:26.686Z,18.20
2018-03-19T05:06:26.710Z,18.67
2018-03-19T05:07:26.744Z,18.94
2018-03-19T05:08:26.776Z,19.22
2018-03-19T05:09:26.804Z,19.44
2018-03-19T05:10:26.834Z,19.62
2018-03-19T05:11:26.862Z,19.86
2018-03-19T05:12:26.885Z,20.05
2018-03-19T05:13:26.914Z,20.03
2018-03-19T05:14:26.944Z,20.16
2018-03-19T05:15:26.975Z,20.23
2018-03-19T05:16:27.003Z,20.35
2018-03-19T05:17:27.033Z,20.36
2018-03-19T05:18:27.060Z,20.48
2018-03-19T05:19:27.092Z,20.47
2018-03-19T05:20:27.123Z,20.55
2018-03-19T05:21:27.151Z,20.58
2018-03-19T05:22:27.186Z,20.67
2018-03-19T05:23:27.214Z,20.66
2018-03-19T05:24:27.240Z,20.66
2018-03-19T05:25:27.270Z,20.72
2018-03-19T05:26:27.297Z,20.82
2018-03-19T05:27:27.328Z,20.74
2018-03-19T05:28:27.360Z,20.84
2018-03-19T05:29:27.389Z,20.85
2018-03-19T05:30:27.419Z,20.92
2018-03-19T05:31:27.448Z,20.88
2018-03-19T05:32:27.481Z,20.91
2018-03-19T05:33:27.514Z,20.99
2018-03-19T05:34:27.537Z,20.91
2018-03-19T05:35:27.569Z,20.95
2018-03-19T05:36:27.595Z,20.98
2018-03-19T05:37:27.622Z,20.98
2018-03-19T05:38:27.655Z,20.99
2018-03-19T05:39:27.682Z,20.98
2018-03-19T05:40:27.718Z,20.92
2018-03-19T05:41:27.749Z,21.04
2018-03-19T05:42:27.780Z,20.95
2018-03-19T05:43:27.808Z,20.99
2018-03-19T05:44:27.838Z,21.07
2018-03-19T05:45:27.864Z,21.03
2018-03-19T05:46:27.891Z,21.01
2018-03-19T05:47:27.922Z,21.07
2018-03-19T05:48:27.955Z,21.12
2018-03-19T05:49:27.988Z,21.10
2018-03-19T05:50:28.017Z,21.06
2018-03-19T05:51:28.046Z,21.06
2018-03-19T05:52:28.075Z,21.13
2018-03-19T05:53:28.106Z,21.09
2018-03-19T05:54:28.136Z,21.12
2018-03-19T05:55:28.163Z,21.12
2018-03-19T05:56:28.197Z,21.06
2018-03-19T05:57:28.225Z,21.12
2018-03-19T05:58:28.254Z,21.06
2018-03-19T05:59:28.285Z,21.09
2018-03-19T06:00:28.312Z,21.12
2018-03-19T06:01:28.339Z,21.10
2018-03-19T06:02:28.372Z,21.04
2018-03-19T06:03:28.399Z,21.10
2018-03-19T06:04:28.430Z,21.06
2018-03-19T06:05:28.463Z,21.13
2018-03-19T06:06:28.493Z,21.04
2018-03-19T06:07:28.521Z,21.19
2018-03-19T06:08:28.552Z,21.01
2018-03-19T06:09:28.581Z,21.16
2018-03-19T06:10:28.632Z,21.12
2018-03-19T06:11:28.644Z,21.03
2018-03-19T06:12:28.673Z,21.22
2018-03-19T06:13:28.700Z,21.21
2018-03-19T06:14:28.728Z,21.16
2018-03-19T06:15:28.756Z,21.19
2018-03-19T06:16:28.795Z,21.17
2018-03-19T06:17:28.825Z,21.19
2018-03-19T06:18:28.849Z,21.22
2018-03-19T06:19:28.881Z,21.25
2018-03-19T06:20:28.912Z,21.24
2018-03-19T06:21:28.943Z,21.27
2018-03-19T06:22:28.975Z,21.21
2018-03-19T06:23:29.004Z,21.28
2018-03-19T06:24:29.027Z,21.14
2018-03-19T06:25:29.056Z,21.28
2018-03-19T06:26:29.087Z,21.14
2018-03-19T06:27:29.116Z,21.24
2018-03-19T06:28:29.149Z,21.29
2018-03-19T06:29:29.181Z,21.22
2018-03-19T06:30:29.211Z,21.25
2018-03-19T06:31:29.239Z,21.24
2018-03-19T06:32:29.265Z,21.32
2018-03-19T06:33:29.298Z,21.27
2018-03-19T06:34:29.327Z,21.29
2018-03-19T06:35:29.357Z,21.22
2018-03-19T06:36:29.387Z,21.25
2018-03-19T06:37:29.417Z,21.34
2018-03-19T06:38:29.444Z,21.28
2018-03-19T06:39:29.473Z,21.29
2018-03-19T06:40:29.511Z,21.22
2018-03-19T06:41:29.538Z,21.27
2018-03-19T06:42:29.569Z,21.27
2018-03-19T06:43:29.598Z,21.25
2018-03-19T06:44:29.626Z,21.27
2018-03-19T06:45:29.656Z,21.29
2018-03-19T06:46:29.684Z,21.25
2018-03-19T06:47:29.715Z,21.22
2018-03-19T06:48:29.749Z,21.28
2018-03-19T06:49:29.778Z,21.27
2018-03-19T06:50:29.808Z,21.25
2018-03-19T06:51:29.837Z,21.29
2018-03-19T06:52:29.863Z,21.31
2018-03-19T06:53:29.895Z,21.22
2018-03-19T06:54:29.922Z,21.27
2018-03-19T06:55:29.974Z,21.28
2018-03-19T06:56:29.988Z,21.32
2018-03-19T06:57:30.018Z,21.27
2018-03-19T06:58:30.045Z,21.24
2018-03-19T06:59:30.078Z,21.34
2018-03-19T07:00:30.105Z,21.34
2018-03-19T07:01:30.133Z,21.28
2018-03-19T07:02:30.163Z,21.28
2018-03-19T07:03:30.191Z,21.31
2018-03-19T07:04:30.228Z,21.25
2018-03-19T07:05:30.256Z,21.29
2018-03-19T07:06:30.292Z,21.32
2018-03-19T07:07:30.315Z,21.35
2018-03-19T07:08:30.347Z,21.35
2018-03-19T07:09:30.377Z,21.38
2018-03-19T07:10:30.406Z,21.46
2018-03-19T07:11:30.477Z,21.40
2018-03-19T07:12:30.463Z,21.50
2018-03-19T07:13:30.498Z,21.58
2018-03-19T07:14:30.524Z,21.59
2018-03-19T07:15:30.554Z,21.67
2018-03-19T07:16:30.589Z,21.67
2018-03-19T07:17:30.615Z,21.74
2018-03-19T07:18:30.647Z,21.80
2018-03-19T07:19:30.677Z,21.86
2018-03-19T07:20:30.707Z,21.91
2018-03-19T07:21:30.736Z,21.84
2018-03-19T07:22:30.767Z,21.86
2018-03-19T07:23:30.795Z,21.99
2018-03-19T07:24:30.826Z,21.96
2018-03-19T07:25:30.861Z,22.03
2018-03-19T07:26:30.885Z,22.06
2018-03-19T07:27:30.918Z,22.03
2018-03-19T07:28:30.953Z,22.10
2018-03-19T07:29:30.983Z,22.05
2018-03-19T07:30:31.012Z,22.15
2018-03-19T07:31:31.041Z,22.20
2018-03-19T07:32:31.073Z,22.15
2018-03-19T07:33:31.098Z,22.21
2018-03-19T07:34:31.169Z,22.22
2018-03-19T07:35:31.161Z,22.17
2018-03-19T07:36:31.194Z,22.33
2018-03-19T07:37:31.222Z,22.39
2018-03-19T07:38:31.253Z,22.35
2018-03-19T07:39:31.282Z,22.35
2018-03-19T07:40:31.317Z,22.45
2018-03-19T07:41:31.345Z,22.37
2018-03-19T07:42:31.373Z,22.47
2018-03-19T07:43:31.405Z,22.57
2018-03-19T07:44:31.434Z,22.61
2018-03-19T07:45:31.459Z,22.60
2018-03-19T07:46:31.493Z,22.55
2018-03-19T07:47:31.521Z,22.54
2018-03-19T07:48:31.560Z,22.58
2018-03-19T07:49:31.595Z,22.64
2018-03-19T07:50:31.616Z,22.70
2018-03-19T07:51:31.652Z,22.68
2018-03-19T07:52:31.672Z,22.64
2018-03-19T07:53:31.701Z,22.67
2018-03-19T07:54:31.734Z,22.72
2018-03-19T07:55:31.763Z,22.67
2018-03-19T07:56:31.798Z,22.73
2018-03-19T07:57:31.825Z,22.75
2018-03-19T07:58:31.858Z,22.88
2018-03-19T07:59:31.887Z,22.91
2018-03-19T08:00:31.913Z,22.91
2018-03-19T08:01:31.946Z,22.94
2018-03-19T08:02:31.975Z,22.98
2018-03-19T08:03:32.004Z,22.95
2018-03-19T08:04:32.040Z,23.01
2018-03-19T08:05:32.071Z,23.09
2018-03-19T08:06:32.099Z,23.13
2018-03-19T08:07:32.132Z,23.17
2018-03-19T08:08:32.157Z,23.07
2018-03-19T08:09:32.184Z,23.12
2018-03-19T08:10:32.217Z,23.17
2018-03-19T08:11:32.247Z,23.17
2018-03-19T08:12:32.276Z,23.22
2018-03-19T08:13:32.309Z,23.27
2018-03-19T08:14:32.339Z,23.32
2018-03-19T08:15:32.396Z,23.32
2018-03-19T08:16:32.401Z,23.33
2018-03-19T08:17:32.433Z,23.31
2018-03-19T08:18:32.526Z,23.36
2018-03-19T08:19:32.496Z,23.35
2018-03-19T08:20:32.519Z,23.48
2018-03-19T08:21:32.550Z,23.48
2018-03-19T08:22:32.580Z,23.53
2018-03-19T08:23:32.616Z,23.51
2018-03-19T08:24:32.652Z,23.54
2018-03-19T08:25:32.681Z,23.58
2018-03-19T08:26:32.710Z,23.61
2018-03-19T08:27:32.744Z,23.63
2018-03-19T08:28:32.774Z,23.60
2018-03-19T08:29:32.803Z,23.69
2018-03-19T08:30:32.841Z,23.78
2018-03-19T08:31:32.871Z,23.76
2018-03-19T08:32:32.891Z,23.73
2018-03-19T08:33:32.921Z,23.83
2018-03-19T08:34:32.956Z,23.78
2018-03-19T08:35:32.987Z,23.90
2018-03-19T08:36:33.020Z,23.85
2018-03-19T08:37:33.054Z,23.85
2018-03-19T08:38:33.084Z,23.85
2018-03-19T08:39:33.113Z,23.84
2018-03-19T08:40:33.141Z,23.93
2018-03-19T08:41:33.173Z,24.03
2018-03-19T08:42:33.205Z,23.95
2018-03-19T08:43:33.234Z,24.03
2018-03-19T08:44:33.267Z,24.05
2018-03-19T08:45:33.295Z,24.03
2018-03-19T08:46:33.325Z,23.95
2018-03-19T08:47:33.361Z,23.97
2018-03-19T08:48:33.397Z,24.05
2018-03-19T08:49:33.425Z,23.97
2018-03-19T08:50:33.459Z,24.05
2018-03-19T08:51:33.487Z,24.05
2018-03-19T08:52:33.516Z,24.09
2018-03-19T08:53:33.548Z,24.18
2018-03-19T08:54:33.577Z,24.13
2018-03-19T08:55:33.607Z,24.21
2018-03-19T08:56:33.648Z,24.15
2018-03-19T08:57:33.676Z,24.15
2018-03-19T08:58:33.743Z,24.20
2018-03-19T08:59:33.740Z,24.27
2018-03-19T09:00:33.767Z,24.18
2018-03-19T09:01:33.798Z,24.21
2018-03-19T09:02:33.828Z,24.16
2018-03-19T09:03:33.858Z,24.22
2018-03-19T09:04:33.894Z,24.28
2018-03-19T09:05:33.926Z,24.25
2018-03-19T09:06:33.954Z,24.30
2018-03-19T09:07:33.990Z,24.25
2018-03-19T09:08:34.015Z,24.32
2018-03-19T09:09:34.043Z,24.27
2018-03-19T09:10:34.078Z,24.28
2018-03-19T09:11:34.108Z,24.32
2018-03-19T09:12:34.204Z,24.39
2018-03-19T09:13:34.172Z,24.45
2018-03-19T09:14:34.207Z,24.45
2018-03-19T09:15:34.237Z,24.50
2018-03-19T09:16:34.268Z,24.45
2018-03-19T09:17:34.300Z,24.55
2018-03-19T09:18:34.331Z,24.47
2018-03-19T09:19:34.364Z,24.58
2018-03-19T09:20:34.392Z,24.53
2018-03-19T09:21:34.419Z,24.61
2018-03-19T09:22:34.452Z,24.62
2018-03-19T09:23:34.486Z,24.62
2018-03-19T09:24:34.521Z,24.58
2018-03-19T09:25:34.550Z,24.52
2018-03-19T09:26:34.585Z,24.52
2018-03-19T09:27:34.616Z,24.50
2018-03-19T09:28:34.644Z,24.49
2018-03-19T09:29:34.675Z,24.58
2018-03-19T09:30:34.704Z,24.57
2018-03-19T09:31:34.740Z,24.57
2018-03-19T09:32:34.768Z,24.53
2018-03-19T09:33:34.799Z,24.60
2018-03-19T09:34:34.830Z,24.58
2018-03-19T09:35:34.869Z,24.58
2018-03-19T09:36:34.936Z,24.68
2018-03-19T09:37:34.930Z,24.64
2018-03-19T09:38:34.961Z,24.65
2018-03-19T09:39:34.995Z,24.64
2018-03-19T09:40:35.024Z,24.68
2018-03-19T09:41:35.059Z,24.58
2018-03-19T09:42:35.085Z,24.62
2018-03-19T09:43:35.116Z,24.61
2018-03-19T09:44:35.151Z,24.60
2018-03-19T09:45:35.182Z,24.65
2018-03-19T09:46:35.214Z,24.52
2018-03-19T09:47:35.248Z,24.57
2018-03-19T09:48:35.276Z,24.55
2018-03-19T09:49:35.310Z,24.55
2018-03-19T09:50:35.343Z,24.50
2018-03-19T09:51:35.371Z,24.55
2018-03-19T09:52:35.402Z,24.50
2018-03-19T09:53:35.428Z,24.50
2018-03-19T09:54:35.465Z,24.60
2018-03-19T09:55:35.492Z,24.46
2018-03-19T09:56:35.528Z,24.58
2018-03-19T09:57:35.556Z,24.61
2018-03-19T09:58:35.589Z,24.53
2018-03-19T09:59:35.619Z,24.60
2018-03-19T10:00:35.646Z,24.65
2018-03-19T10:01:35.676Z,24.58
2018-03-19T10:02:35.716Z,24.50
2018-03-19T10:03:35.741Z,24.52
2018-03-19T10:04:35.774Z,24.57
2018-03-19T10:05:35.807Z,24.49
2018-03-19T10:06:35.836Z,24.58
2018-03-19T10:07:35.869Z,24.55
2018-03-19T10:08:35.896Z,24.46
2018-03-19T10:09:35.924Z,24.47
2018-03-19T10:10:35.955Z,24.53
2018-03-19T10:11:35.990Z,24.53
2018-03-19T10:12:36.024Z,24.49
2018-03-19T10:13:36.056Z,24.53
2018-03-19T10:14:36.087Z,24.52
2018-03-19T10:15:36.116Z,24.52
2018-03-19T10:16:36.150Z,24.55
2018-03-19T10:17:36.174Z,24.53
2018-03-19T10:18:36.206Z,24.57
2018-03-19T10:19:36.238Z,24.50
2018-03-19T10:20:36.268Z,24.61
2018-03-19T10:21:36.302Z,24.64
2018-03-19T10:22:36.328Z,24.68
2018-03-19T10:23:36.364Z,24.60
2018-03-19T10:24:36.400Z,24.61
2018-03-19T10:25:36.432Z,24.64
2018-03-19T10:26:36.460Z,24.62
2018-03-19T10:27:36.507Z,24.61
2018-03-19T10:28:36.520Z,24.58
2018-03-19T10:29:36.556Z,24.25
2018-03-19T10:30:36.582Z,23.84
2018-03-19T10:31:36.617Z,23.69
2018-03-19T10:32:36.651Z,23.60
2018-03-19T10:33:36.686Z,23.46
2018-03-19T10:34:36.710Z,23.42
2018-03-19T10:35:36.746Z,23.40
2018-03-19T10:36:36.780Z,23.28
2018-03-19T10:37:36.809Z,23.12
2018-03-19T10:38:36.880Z,23.09
2018-03-19T10:39:36.877Z,23.07
2018-03-19T10:40:36.901Z,23.00
2018-03-19T10:41:36.930Z,22.94
2018-03-19T10:42:36.964Z,22.98
2018-03-19T10:43:36.996Z,22.88
2018-03-19T10:44:37.031Z,22.72
2018-03-19T10:45:37.064Z,22.64
2018-03-19T10:46:37.096Z,22.62
2018-03-19T10:47:37.125Z,22.65
2018-03-19T10:48:37.150Z,22.65
2018-03-19T10:49:37.183Z,22.58
2018-03-19T10:50:37.214Z,22.70
2018-03-19T10:51:37.245Z,22.70
2018-03-19T10:52:37.277Z,22.67
2018-03-19T10:53:37.310Z,22.68
2018-03-19T10:54:37.339Z,22.72
2018-03-19T10:55:37.369Z,22.75
2018-03-19T10:56:37.404Z,22.86
2018-03-19T10:57:37.437Z,23.09
2018-03-19T10:58:37.467Z,23.25
2018-03-19T10:59:37.498Z,23.28
2018-03-19T11:00:37.528Z,23.39
2018-03-19T11:01:37.558Z,23.39
2018-03-19T11:02:37.589Z,23.55
2018-03-19T11:03:37.619Z,23.50
2018-03-19T11:04:37.653Z,23.66
2018-03-19T11:05:37.683Z,23.70
2018-03-19T11:06:37.712Z,23.75
2018-03-19T11:07:37.749Z,23.75
2018-03-19T11:08:37.771Z,23.73
2018-03-19T11:09:37.805Z,23.83
2018-03-19T11:10:37.834Z,23.72
2018-03-19T11:11:37.878Z,23.87
2018-03-19T11:12:37.901Z,23.94
2018-03-19T11:13:37.927Z,23.85
2018-03-19T11:14:37.962Z,23.87
2018-03-19T11:15:37.989Z,23.91
2018-03-19T11:16:38.016Z,23.83
2018-03-19T11:17:38.046Z,23.65
2018-03-19T11:18:38.080Z,23.53
2018-03-19T11:19:38.111Z,23.55
2018-03-19T11:20:38.159Z,23.40
2018-03-19T11:21:38.179Z,23.51
2018-03-19T11:22:38.207Z,23.53
2018-03-19T11:23:38.241Z,23.55
2018-03-19T11:24:38.274Z,23.66
2018-03-19T11:25:38.301Z,23.69
2018-03-19T11:26:38.333Z,23.75
2018-03-19T11:27:38.366Z,23.68
2018-03-19T11:28:38.393Z,23.79
2018-03-19T11:29:38.421Z,23.75
2018-03-19T11:30:38.453Z,23.78
2018-03-19T11:31:38.482Z,23.72
2018-03-19T11:32:38.518Z,23.68
2018-03-19T11:33:38.550Z,23.68
2018-03-19T11:34:38.581Z,23.66
2018-03-19T11:35:38.609Z,23.65
2018-03-19T11:36:38.639Z,23.68
2018-03-19T11:37:38.667Z,23.69
2018-03-19T11:38:38.697Z,23.70
2018-03-19T11:39:38.731Z,23.66
2018-03-19T11:40:38.756Z,23.76
2018-03-19T11:41:38.792Z,23.78
2018-03-19T11:42:38.814Z,23.78
2018-03-19T11:43:38.847Z,23.83
2018-03-19T11:44:38.882Z,23.84
2018-03-19T11:45:38.912Z,23.87
2018-03-19T11:46:38.945Z,23.75
2018-03-19T11:47:38.974Z,23.85
2018-03-19T11:48:39.001Z,23.83
2018-03-19T11:49:39.028Z,23.85
2018-03-19T11:50:39.061Z,23.83
2018-03-19T11:51:39.091Z,23.83
2018-03-19T11:52:39.124Z,23.80
2018-03-19T11:53:39.154Z,23.83
2018-03-19T11:54:39.187Z,23.84
2018-03-19T11:55:39.218Z,23.84
2018-03-19T11:56:39.245Z,23.85
2018-03-19T11:57:39.276Z,23.80
2018-03-19T11:58:39.305Z,23.83
2018-03-19T11:59:39.337Z,23.90
2018-03-19T12:00:39.361Z,23.83
2018-03-19T12:01:39.391Z,23.84
2018-03-19T12:02:39.422Z,23.97
2018-03-19T12:03:39.454Z,23.87
2018-03-19T12:04:39.489Z,24.03
2018-03-19T12:05:39.519Z,24.08
2018-03-19T12:06:39.548Z,24.08
2018-03-19T12:07:39.580Z,23.97
2018-03-19T12:08:39.607Z,24.09
2018-03-19T12:09:39.635Z,24.15
2018-03-19T12:10:39.673Z,24.02
2018-03-19T12:11:39.700Z,23.87
2018-03-19T12:12:39.732Z,23.87
2018-03-19T12:13:39.768Z,23.84
2018-03-19T12:14:39.798Z,23.79
2018-03-19T12:15:39.827Z,23.70
2018-03-19T12:16:39.855Z,23.68
2018-03-19T12:17:39.886Z,23.66
2018-03-19T12:18:39.919Z,23.70
2018-03-19T12:19:39.949Z,23.58
2018-03-19T12:20:39.983Z,23.72
2018-03-19T12:21:40.014Z,23.66
2018-03-19T12:22:40.043Z,23.65
2018-03-19T12:23:40.075Z,23.68
2018-03-19T12:24:40.100Z,23.68
2018-03-19T12:25:40.131Z,23.63
2018-03-19T12:26:40.161Z,23.66
2018-03-19T12:27:40.200Z,23.63
2018-03-19T12:28:40.223Z,23.50
2018-03-19T12:29:40.250Z,23.53
2018-03-19T12:30:40.282Z,23.65
2018-03-19T12:31:40.313Z,23.65
2018-03-19T12:32:40.347Z,23.69
2018-03-19T12:33:40.375Z,23.65
2018-03-19T12:34:40.407Z,23.70
2018-03-19T12:35:40.436Z,23.66
2018-03-19T12:36:40.463Z,23.63
2018-03-19T12:37:40.493Z,23.68
2018-03-19T12:38:40.524Z,23.72
2018-03-19T12:39:40.551Z,23.65
2018-03-19T12:40:40.588Z,23.63
2018-03-19T12:41:40.616Z,23.69
2018-03-19T12:42:40.647Z,23.66
2018-03-19T12:43:40.676Z,23.70
2018-03-19T12:44:40.706Z,23.65
2018-03-19T12:45:40.739Z,23.69
2018-03-19T12:46:40.769Z,23.72
2018-03-19T12:47:40.799Z,23.57
2018-03-19T12:48:40.826Z,23.39
2018-03-19T12:49:40.855Z,23.28
2018-03-19T12:50:40.890Z,23.33
2018-03-19T12:51:40.916Z,23.23
2018-03-19T12:52:40.955Z,23.20